sensor_id;sensor_type;location;lat;lon;timestamp;pressure;altitude;pressure_sealevel;temperature;humidity
51053;BME280;37093;37.716;-122.060;2023-01-28T00:00:28;100210.31;;;19.85;26.04
51053;BME280;37093;37.716;-122.060;2023-01-28T00:02:56;100202.38;;;19.50;27.50
51053;BME280;37093;37.716;-122.060;2023-01-28T00:05:24;100194.21;;;19.33;29.27
51053;BME280;37093;37.716;-122.060;2023-01-28T00:07:52;100193.50;;;19.37;30.14
51053;BME280;37093;37.716;-122.060;2023-01-28T00:10:21;100192.23;;;19.22;31.99
51053;BME280;37093;37.716;-122.060;2023-01-28T00:12:49;100191.41;;;18.66;32.60
51053;BME280;37093;37.716;-122.060;2023-01-28T00:15:18;100191.75;;;18.98;32.47
51053;BME280;37093;37.716;-122.060;2023-01-28T00:17:46;100195.37;;;19.44;32.41
51053;BME280;37093;37.716;-122.060;2023-01-28T00:20:15;100195.24;;;18.68;32.99
51053;BME280;37093;37.716;-122.060;2023-01-28T00:22:47;100188.03;;;18.84;32.77
51053;BME280;37093;37.716;-122.060;2023-01-28T00:25:15;100186.25;;;18.53;33.93
51053;BME280;37093;37.716;-122.060;2023-01-28T00:27:44;100186.80;;;18.34;35.08
51053;BME280;37093;37.716;-122.060;2023-01-28T00:30:13;100186.76;;;17.86;35.93
51053;BME280;37093;37.716;-122.060;2023-01-28T00:32:42;100183.31;;;17.80;36.19
51053;BME280;37093;37.716;-122.060;2023-01-28T00:35:11;100179.31;;;17.74;36.72
51053;BME280;37093;37.716;-122.060;2023-01-28T00:37:40;100176.90;;;17.37;37.41
51053;BME280;37093;37.716;-122.060;2023-01-28T00:41:16;100170.50;;;17.40;37.63
51053;BME280;37093;37.716;-122.060;2023-01-28T00:43:45;100172.63;;;17.00;38.92
51053;BME280;37093;37.716;-122.060;2023-01-28T00:46:13;100172.87;;;16.91;39.65
51053;BME280;37093;37.716;-122.060;2023-01-28T00:48:43;100168.57;;;16.77;39.80
51053;BME280;37093;37.716;-122.060;2023-01-28T00:51:13;100162.86;;;16.70;39.95
51053;BME280;37093;37.716;-122.060;2023-01-28T00:53:42;100157.64;;;16.49;40.33
51053;BME280;37093;37.716;-122.060;2023-01-28T00:56:13;100161.74;;;16.23;39.80
51053;BME280;37093;37.716;-122.060;2023-01-28T00:58:42;100168.74;;;16.12;39.92
51053;BME280;37093;37.716;-122.060;2023-01-28T01:01:12;100166.99;;;16.22;40.47
51053;BME280;37093;37.716;-122.060;2023-01-28T01:03:41;100169.20;;;15.87;40.56
51053;BME280;37093;37.716;-122.060;2023-01-28T01:06:10;100171.56;;;15.95;41.15
51053;BME280;37093;37.716;-122.060;2023-01-28T01:08:39;100172.53;;;15.87;40.58
51053;BME280;37093;37.716;-122.060;2023-01-28T01:11:09;100166.83;;;15.94;40.75
51053;BME280;37093;37.716;-122.060;2023-01-28T01:13:38;100160.33;;;15.95;40.26
51053;BME280;37093;37.716;-122.060;2023-01-28T01:16:09;100155.06;;;16.55;39.59
51053;BME280;37093;37.716;-122.060;2023-01-28T01:18:39;100157.83;;;16.64;39.39
51053;BME280;37093;37.716;-122.060;2023-01-28T01:21:09;100149.55;;;16.73;39.89
51053;BME280;37093;37.716;-122.060;2023-01-28T01:23:38;100147.13;;;16.09;40.81
51053;BME280;37093;37.716;-122.060;2023-01-28T01:26:06;100146.36;;;15.32;41.61
51053;BME280;37093;37.716;-122.060;2023-01-28T01:28:35;100142.94;;;15.61;41.30
51053;BME280;37093;37.716;-122.060;2023-01-28T01:31:06;100130.06;;;15.91;40.54
51053;BME280;37093;37.716;-122.060;2023-01-28T01:33:35;100137.21;;;16.25;39.18
51053;BME280;37093;37.716;-122.060;2023-01-28T01:36:03;100136.61;;;16.55;38.51
51053;BME280;37093;37.716;-122.060;2023-01-28T01:38:33;100136.08;;;16.89;38.37
51053;BME280;37093;37.716;-122.060;2023-01-28T01:41:03;100127.87;;;16.85;38.22
51053;BME280;37093;37.716;-122.060;2023-01-28T01:43:47;100121.10;;;16.97;37.78
51053;BME280;37093;37.716;-122.060;2023-01-28T01:46:18;100131.70;;;17.03;37.77
51053;BME280;37093;37.716;-122.060;2023-01-28T01:48:48;100134.40;;;17.05;37.56
51053;BME280;37093;37.716;-122.060;2023-01-28T01:51:20;100133.80;;;16.69;38.16
51053;BME280;37093;37.716;-122.060;2023-01-28T01:53:54;100132.36;;;17.03;37.90
51053;BME280;37093;37.716;-122.060;2023-01-28T01:56:29;100123.93;;;16.64;37.75
51053;BME280;37093;37.716;-122.060;2023-01-28T01:58:59;100115.85;;;16.31;38.77
51053;BME280;37093;37.716;-122.060;2023-01-28T02:01:31;100121.58;;;16.64;38.66
51053;BME280;37093;37.716;-122.060;2023-01-28T02:04:04;100123.61;;;16.67;38.52
51053;BME280;37093;37.716;-122.060;2023-01-28T02:06:35;100121.18;;;16.70;38.92
51053;BME280;37093;37.716;-122.060;2023-01-28T02:09:19;100119.35;;;16.50;39.01
51053;BME280;37093;37.716;-122.060;2023-01-28T02:11:49;100128.56;;;16.66;38.48
51053;BME280;37093;37.716;-122.060;2023-01-28T02:14:19;100133.28;;;16.57;38.81
51053;BME280;37093;37.716;-122.060;2023-01-28T02:16:48;100124.30;;;16.08;39.29
51053;BME280;37093;37.716;-122.060;2023-01-28T02:19:19;100111.89;;;16.13;39.36
51053;BME280;37093;37.716;-122.060;2023-01-28T02:22:10;100100.41;;;16.68;38.47
51053;BME280;37093;37.716;-122.060;2023-01-28T02:25:19;100104.05;;;16.14;38.92
51053;BME280;37093;37.716;-122.060;2023-01-28T02:28:07;100099.81;;;16.19;38.70
51053;BME280;37093;37.716;-122.060;2023-01-28T02:30:43;100099.03;;;16.23;38.68
51053;BME280;37093;37.716;-122.060;2023-01-28T02:33:18;100105.13;;;16.16;38.84
51053;BME280;37093;37.716;-122.060;2023-01-28T02:35:53;100120.74;;;16.20;39.50
51053;BME280;37093;37.716;-122.060;2023-01-28T02:38:27;100125.83;;;16.26;38.95
51053;BME280;37093;37.716;-122.060;2023-01-28T02:41:03;100123.45;;;16.13;39.50
51053;BME280;37093;37.716;-122.060;2023-01-28T02:43:34;100123.74;;;15.96;39.99
51053;BME280;37093;37.716;-122.060;2023-01-28T02:46:11;100116.70;;;15.60;39.72
51053;BME280;37093;37.716;-122.060;2023-01-28T02:48:42;100111.10;;;16.03;39.63
51053;BME280;37093;37.716;-122.060;2023-01-28T02:51:17;100104.59;;;15.96;39.57
51053;BME280;37093;37.716;-122.060;2023-01-28T02:53:56;100107.74;;;15.90;39.71
51053;BME280;37093;37.716;-122.060;2023-01-28T02:56:32;100122.12;;;15.82;39.87
51053;BME280;37093;37.716;-122.060;2023-01-28T02:59:07;100104.66;;;15.97;39.32
51053;BME280;37093;37.716;-122.060;2023-01-28T03:01:42;100103.34;;;15.99;39.57
51053;BME280;37093;37.716;-122.060;2023-01-28T03:04:17;100107.68;;;15.83;39.40
51053;BME280;37093;37.716;-122.060;2023-01-28T03:06:51;100108.86;;;15.79;39.52
51053;BME280;37093;37.716;-122.060;2023-01-28T03:09:22;100121.91;;;15.35;40.13
51053;BME280;37093;37.716;-122.060;2023-01-28T03:11:54;100124.68;;;15.59;40.46
51053;BME280;37093;37.716;-122.060;2023-01-28T03:14:23;100127.17;;;15.99;40.54
51053;BME280;37093;37.716;-122.060;2023-01-28T03:16:53;100137.36;;;15.42;41.07
51053;BME280;37093;37.716;-122.060;2023-01-28T03:19:23;100126.89;;;15.94;41.01
51053;BME280;37093;37.716;-122.060;2023-01-28T03:21:52;100120.28;;;15.51;40.72
51053;BME280;37093;37.716;-122.060;2023-01-28T03:24:23;100124.64;;;15.84;40.58
51053;BME280;37093;37.716;-122.060;2023-01-28T03:26:57;100126.53;;;15.24;40.33
51053;BME280;37093;37.716;-122.060;2023-01-28T03:29:30;100129.28;;;15.32;40.97
51053;BME280;37093;37.716;-122.060;2023-01-28T03:31:59;100132.48;;;15.36;41.62
51053;BME280;37093;37.716;-122.060;2023-01-28T03:34:28;100125.94;;;15.11;41.79
51053;BME280;37093;37.716;-122.060;2023-01-28T03:36:57;100128.36;;;15.57;41.69
51053;BME280;37093;37.716;-122.060;2023-01-28T03:39:28;100127.69;;;15.17;41.49
51053;BME280;37093;37.716;-122.060;2023-01-28T03:41:59;100125.23;;;15.49;41.47
51053;BME280;37093;37.716;-122.060;2023-01-28T03:44:27;100124.42;;;15.32;41.08
51053;BME280;37093;37.716;-122.060;2023-01-28T03:46:56;100123.05;;;15.11;40.97
51053;BME280;37093;37.716;-122.060;2023-01-28T03:49:25;100122.73;;;15.16;40.77
51053;BME280;37093;37.716;-122.060;2023-01-28T03:51:54;100118.88;;;15.22;40.52
51053;BME280;37093;37.716;-122.060;2023-01-28T03:54:22;100117.50;;;15.20;40.39
51053;BME280;37093;37.716;-122.060;2023-01-28T03:56:51;100117.05;;;15.21;40.24
51053;BME280;37093;37.716;-122.060;2023-01-28T03:59:19;100114.74;;;15.28;39.85
51053;BME280;37093;37.716;-122.060;2023-01-28T04:01:47;100112.06;;;15.37;40.15
51053;BME280;37093;37.716;-122.060;2023-01-28T04:04:16;100112.15;;;15.26;40.48
51053;BME280;37093;37.716;-122.060;2023-01-28T04:06:44;100110.53;;;15.01;40.55
51053;BME280;37093;37.716;-122.060;2023-01-28T04:09:13;100105.82;;;15.04;40.34
51053;BME280;37093;37.716;-122.060;2023-01-28T04:11:41;100102.71;;;15.04;40.10
51053;BME280;37093;37.716;-122.060;2023-01-28T04:14:09;100110.55;;;15.10;40.04
51053;BME280;37093;37.716;-122.060;2023-01-28T04:16:37;100116.63;;;14.48;40.58
51053;BME280;37093;37.716;-122.060;2023-01-28T04:19:06;100117.45;;;14.27;41.76
51053;BME280;37093;37.716;-122.060;2023-01-28T04:21:34;100118.41;;;14.27;42.27
51053;BME280;37093;37.716;-122.060;2023-01-28T04:24:03;100116.09;;;14.61;42.11
51053;BME280;37093;37.716;-122.060;2023-01-28T04:26:31;100110.06;;;14.09;42.69
51053;BME280;37093;37.716;-122.060;2023-01-28T04:29:00;100103.04;;;14.22;42.55
51053;BME280;37093;37.716;-122.060;2023-01-28T04:31:29;100099.34;;;14.02;43.04
51053;BME280;37093;37.716;-122.060;2023-01-28T04:33:58;100098.97;;;14.22;42.66
51053;BME280;37093;37.716;-122.060;2023-01-28T04:36:26;100097.52;;;14.00;43.61
51053;BME280;37093;37.716;-122.060;2023-01-28T04:38:54;100098.16;;;14.06;43.53
51053;BME280;37093;37.716;-122.060;2023-01-28T04:41:22;100098.21;;;13.46;45.32
51053;BME280;37093;37.716;-122.060;2023-01-28T04:43:50;100096.05;;;13.04;46.42
51053;BME280;37093;37.716;-122.060;2023-01-28T04:46:19;100095.06;;;13.29;47.38
51053;BME280;37093;37.716;-122.060;2023-01-28T04:48:47;100101.78;;;12.71;48.51
51053;BME280;37093;37.716;-122.060;2023-01-28T04:51:16;100097.21;;;11.38;53.64
51053;BME280;37093;37.716;-122.060;2023-01-28T04:53:44;100103.68;;;12.95;48.45
51053;BME280;37093;37.716;-122.060;2023-01-28T04:56:12;100097.52;;;13.07;47.66
51053;BME280;37093;37.716;-122.060;2023-01-28T04:58:41;100088.24;;;13.30;46.71
51053;BME280;37093;37.716;-122.060;2023-01-28T05:01:09;100090.71;;;13.39;47.35
51053;BME280;37093;37.716;-122.060;2023-01-28T05:03:38;100091.08;;;12.92;48.05
51053;BME280;37093;37.716;-122.060;2023-01-28T05:06:07;100092.18;;;12.54;48.74
51053;BME280;37093;37.716;-122.060;2023-01-28T05:08:35;100096.95;;;13.38;47.91
51053;BME280;37093;37.716;-122.060;2023-01-28T05:11:03;100099.51;;;13.18;46.87
51053;BME280;37093;37.716;-122.060;2023-01-28T05:13:32;100093.93;;;13.40;46.42
51053;BME280;37093;37.716;-122.060;2023-01-28T05:16:00;100086.00;;;13.63;47.00
51053;BME280;37093;37.716;-122.060;2023-01-28T05:18:28;100088.55;;;13.51;46.13
51053;BME280;37093;37.716;-122.060;2023-01-28T05:20:57;100085.60;;;13.65;46.26
51053;BME280;37093;37.716;-122.060;2023-01-28T05:23:25;100072.59;;;13.64;46.91
51053;BME280;37093;37.716;-122.060;2023-01-28T05:25:53;100077.07;;;12.84;48.08
51053;BME280;37093;37.716;-122.060;2023-01-28T05:28:21;100077.07;;;13.33;47.26
51053;BME280;37093;37.716;-122.060;2023-01-28T05:30:50;100071.13;;;12.85;47.58
51053;BME280;37093;37.716;-122.060;2023-01-28T05:33:18;100070.83;;;13.34;47.23
51053;BME280;37093;37.716;-122.060;2023-01-28T05:35:47;100070.54;;;13.57;45.80
51053;BME280;37093;37.716;-122.060;2023-01-28T05:38:16;100069.69;;;13.29;46.70
51053;BME280;37093;37.716;-122.060;2023-01-28T05:40:44;100073.54;;;13.27;46.48
51053;BME280;37093;37.716;-122.060;2023-01-28T05:43:14;100083.24;;;13.39;46.08
51053;BME280;37093;37.716;-122.060;2023-01-28T05:45:43;100082.27;;;13.37;46.22
51053;BME280;37093;37.716;-122.060;2023-01-28T05:48:11;100086.81;;;13.08;47.55
51053;BME280;37093;37.716;-122.060;2023-01-28T05:50:40;100086.92;;;12.85;47.30
51053;BME280;37093;37.716;-122.060;2023-01-28T05:53:08;100082.33;;;13.05;47.39
51053;BME280;37093;37.716;-122.060;2023-01-28T05:55:37;100080.27;;;12.91;48.09
51053;BME280;37093;37.716;-122.060;2023-01-28T05:58:05;100079.73;;;13.02;47.78
51053;BME280;37093;37.716;-122.060;2023-01-28T06:00:34;100076.74;;;13.40;46.85
51053;BME280;37093;37.716;-122.060;2023-01-28T06:03:02;100079.89;;;13.42;48.00
51053;BME280;37093;37.716;-122.060;2023-01-28T06:05:31;100076.07;;;13.24;46.72
51053;BME280;37093;37.716;-122.060;2023-01-28T06:07:59;100076.40;;;13.33;47.30
51053;BME280;37093;37.716;-122.060;2023-01-28T06:10:28;100076.93;;;13.20;47.27
51053;BME280;37093;37.716;-122.060;2023-01-28T06:12:57;100077.92;;;13.39;48.75
51053;BME280;37093;37.716;-122.060;2023-01-28T06:15:25;100074.08;;;12.62;49.78
51053;BME280;37093;37.716;-122.060;2023-01-28T06:17:53;100079.92;;;12.36;50.68
51053;BME280;37093;37.716;-122.060;2023-01-28T06:20:22;100085.32;;;12.49;49.67
51053;BME280;37093;37.716;-122.060;2023-01-28T06:22:51;100087.08;;;12.65;49.84
51053;BME280;37093;37.716;-122.060;2023-01-28T06:25:19;100081.92;;;12.59;49.34
51053;BME280;37093;37.716;-122.060;2023-01-28T06:27:48;100089.78;;;12.55;49.35
51053;BME280;37093;37.716;-122.060;2023-01-28T06:30:17;100087.22;;;12.85;49.12
51053;BME280;37093;37.716;-122.060;2023-01-28T06:32:46;100078.25;;;13.30;47.87
51053;BME280;37093;37.716;-122.060;2023-01-28T06:35:14;100080.44;;;13.17;48.30
51053;BME280;37093;37.716;-122.060;2023-01-28T06:37:42;100077.38;;;13.21;48.71
51053;BME280;37093;37.716;-122.060;2023-01-28T06:40:12;100076.35;;;12.91;50.03
51053;BME280;37093;37.716;-122.060;2023-01-28T06:42:40;100078.02;;;13.22;49.91
51053;BME280;37093;37.716;-122.060;2023-01-28T06:45:09;100073.31;;;13.16;49.22
51053;BME280;37093;37.716;-122.060;2023-01-28T06:47:38;100077.63;;;13.36;49.20
51053;BME280;37093;37.716;-122.060;2023-01-28T06:50:08;100073.36;;;13.13;50.33
51053;BME280;37093;37.716;-122.060;2023-01-28T06:52:37;100071.11;;;13.47;49.50
51053;BME280;37093;37.716;-122.060;2023-01-28T06:55:06;100077.01;;;13.43;48.89
51053;BME280;37093;37.716;-122.060;2023-01-28T06:57:37;100078.53;;;13.67;48.37
51053;BME280;37093;37.716;-122.060;2023-01-28T07:00:08;100076.57;;;13.68;48.46
51053;BME280;37093;37.716;-122.060;2023-01-28T07:02:38;100073.00;;;13.43;48.59
51053;BME280;37093;37.716;-122.060;2023-01-28T07:05:07;100072.61;;;13.39;48.51
51053;BME280;37093;37.716;-122.060;2023-01-28T07:07:36;100072.98;;;13.41;47.93
51053;BME280;37093;37.716;-122.060;2023-01-28T07:10:05;100070.85;;;13.67;48.00
51053;BME280;37093;37.716;-122.060;2023-01-28T07:12:34;100067.97;;;13.21;48.03
51053;BME280;37093;37.716;-122.060;2023-01-28T07:15:02;100070.10;;;13.14;48.47
51053;BME280;37093;37.716;-122.060;2023-01-28T07:17:31;100072.85;;;12.72;48.83
51053;BME280;37093;37.716;-122.060;2023-01-28T07:19:59;100072.60;;;12.77;49.46
51053;BME280;37093;37.716;-122.060;2023-01-28T07:22:28;100072.12;;;12.86;48.94
51053;BME280;37093;37.716;-122.060;2023-01-28T07:24:56;100069.63;;;12.94;47.83
51053;BME280;37093;37.716;-122.060;2023-01-28T07:27:25;100066.59;;;12.71;48.53
51053;BME280;37093;37.716;-122.060;2023-01-28T07:29:53;100068.31;;;11.86;52.25
51053;BME280;37093;37.716;-122.060;2023-01-28T07:32:22;100070.15;;;12.10;49.93
51053;BME280;37093;37.716;-122.060;2023-01-28T07:34:51;100066.12;;;12.17;49.29
51053;BME280;37093;37.716;-122.060;2023-01-28T07:37:20;100059.83;;;12.25;49.67
51053;BME280;37093;37.716;-122.060;2023-01-28T07:39:48;100068.18;;;12.21;49.30
51053;BME280;37093;37.716;-122.060;2023-01-28T07:42:16;100068.95;;;12.20;48.42
51053;BME280;37093;37.716;-122.060;2023-01-28T07:44:45;100073.37;;;12.93;47.35
51053;BME280;37093;37.716;-122.060;2023-01-28T07:47:13;100071.57;;;12.32;47.02
51053;BME280;37093;37.716;-122.060;2023-01-28T07:49:42;100068.12;;;12.57;46.73
51053;BME280;37093;37.716;-122.060;2023-01-28T07:52:10;100071.09;;;12.24;47.39
51053;BME280;37093;37.716;-122.060;2023-01-28T07:54:40;100075.10;;;11.76;49.04
51053;BME280;37093;37.716;-122.060;2023-01-28T07:57:09;100071.31;;;11.67;47.43
51053;BME280;37093;37.716;-122.060;2023-01-28T07:59:37;100070.05;;;12.24;46.91
51053;BME280;37093;37.716;-122.060;2023-01-28T08:01:14;100071.08;;;10.93;47.15
51053;BME280;37093;37.716;-122.060;2023-01-28T08:03:44;100070.84;;;10.70;46.57
51053;BME280;37093;37.716;-122.060;2023-01-28T08:06:12;100069.50;;;12.87;43.91
51053;BME280;37093;37.716;-122.060;2023-01-28T08:08:41;100068.97;;;12.81;43.46
51053;BME280;37093;37.716;-122.060;2023-01-28T08:11:09;100067.78;;;13.20;43.25
51053;BME280;37093;37.716;-122.060;2023-01-28T08:13:38;100069.33;;;12.67;44.46
51053;BME280;37093;37.716;-122.060;2023-01-28T08:16:07;100068.32;;;12.69;43.96
51053;BME280;37093;37.716;-122.060;2023-01-28T08:18:35;100065.22;;;12.59;44.93
51053;BME280;37093;37.716;-122.060;2023-01-28T08:21:04;100065.42;;;12.47;44.41
51053;BME280;37093;37.716;-122.060;2023-01-28T08:23:32;100062.53;;;12.62;44.67
51053;BME280;37093;37.716;-122.060;2023-01-28T08:26:01;100061.54;;;12.60;44.44
51053;BME280;37093;37.716;-122.060;2023-01-28T08:28:30;100058.19;;;12.74;45.08
51053;BME280;37093;37.716;-122.060;2023-01-28T08:31:00;100057.13;;;12.30;44.82
51053;BME280;37093;37.716;-122.060;2023-01-28T08:33:28;100052.89;;;12.59;44.41
51053;BME280;37093;37.716;-122.060;2023-01-28T08:35:56;100047.07;;;12.57;44.05
51053;BME280;37093;37.716;-122.060;2023-01-28T08:38:25;100041.55;;;12.40;44.74
51053;BME280;37093;37.716;-122.060;2023-01-28T08:40:55;100036.13;;;12.21;44.80
51053;BME280;37093;37.716;-122.060;2023-01-28T08:43:23;100028.03;;;12.13;44.38
51053;BME280;37093;37.716;-122.060;2023-01-28T08:45:52;100026.33;;;12.28;43.93
51053;BME280;37093;37.716;-122.060;2023-01-28T08:48:20;100024.10;;;12.42;43.50
51053;BME280;37093;37.716;-122.060;2023-01-28T08:50:49;100018.13;;;12.38;43.50
51053;BME280;37093;37.716;-122.060;2023-01-28T08:53:19;100012.38;;;12.42;43.34
51053;BME280;37093;37.716;-122.060;2023-01-28T08:55:48;100013.12;;;12.38;43.04
51053;BME280;37093;37.716;-122.060;2023-01-28T08:58:17;100011.56;;;12.70;42.63
51053;BME280;37093;37.716;-122.060;2023-01-28T09:00:46;100014.66;;;12.42;42.38
51053;BME280;37093;37.716;-122.060;2023-01-28T09:03:15;100016.39;;;12.49;42.18
51053;BME280;37093;37.716;-122.060;2023-01-28T09:05:43;100018.09;;;12.45;42.19
51053;BME280;37093;37.716;-122.060;2023-01-28T09:08:13;100014.80;;;12.74;41.87
51053;BME280;37093;37.716;-122.060;2023-01-28T09:10:43;100014.60;;;12.28;42.37
51053;BME280;37093;37.716;-122.060;2023-01-28T09:13:13;100014.97;;;12.71;42.62
51053;BME280;37093;37.716;-122.060;2023-01-28T09:15:42;100010.45;;;12.54;43.00
51053;BME280;37093;37.716;-122.060;2023-01-28T09:18:11;100010.11;;;12.14;42.71
51053;BME280;37093;37.716;-122.060;2023-01-28T09:20:40;100009.41;;;12.39;42.87
51053;BME280;37093;37.716;-122.060;2023-01-28T09:23:09;100008.69;;;12.47;42.72
51053;BME280;37093;37.716;-122.060;2023-01-28T09:25:37;100010.97;;;12.20;42.51
51053;BME280;37093;37.716;-122.060;2023-01-28T09:28:06;100010.46;;;12.62;42.50
51053;BME280;37093;37.716;-122.060;2023-01-28T09:30:35;100008.15;;;12.29;43.04
51053;BME280;37093;37.716;-122.060;2023-01-28T09:33:04;100011.93;;;12.20;43.27
51053;BME280;37093;37.716;-122.060;2023-01-28T09:35:33;100010.61;;;11.85;44.03
51053;BME280;37093;37.716;-122.060;2023-01-28T09:38:01;100010.76;;;12.21;44.00
51053;BME280;37093;37.716;-122.060;2023-01-28T09:40:34;100016.35;;;12.34;43.75
51053;BME280;37093;37.716;-122.060;2023-01-28T09:43:21;100019.86;;;12.21;42.97
51053;BME280;37093;37.716;-122.060;2023-01-28T09:45:56;100022.98;;;12.07;42.82
51053;BME280;37093;37.716;-122.060;2023-01-28T09:48:29;100023.11;;;12.68;42.94
51053;BME280;37093;37.716;-122.060;2023-01-28T09:50:59;100025.19;;;12.23;42.59
51053;BME280;37093;37.716;-122.060;2023-01-28T09:53:31;100027.46;;;12.53;42.58
51053;BME280;37093;37.716;-122.060;2023-01-28T09:56:03;100027.62;;;12.51;42.53
51053;BME280;37093;37.716;-122.060;2023-01-28T09:58:31;100028.92;;;12.53;42.77
51053;BME280;37093;37.716;-122.060;2023-01-28T10:01:09;100027.34;;;12.21;42.67
51053;BME280;37093;37.716;-122.060;2023-01-28T10:03:55;100027.39;;;12.28;42.83
51053;BME280;37093;37.716;-122.060;2023-01-28T10:06:33;100029.98;;;12.74;43.28
51053;BME280;37093;37.716;-122.060;2023-01-28T10:09:20;100028.97;;;12.59;43.41
51053;BME280;37093;37.716;-122.060;2023-01-28T10:12:02;100024.39;;;12.52;43.61
51053;BME280;37093;37.716;-122.060;2023-01-28T10:14:42;100028.27;;;12.69;43.76
51053;BME280;37093;37.716;-122.060;2023-01-28T10:17:18;100033.30;;;12.48;43.60
51053;BME280;37093;37.716;-122.060;2023-01-28T10:19:52;100027.04;;;12.44;43.39
51053;BME280;37093;37.716;-122.060;2023-01-28T10:22:27;100029.51;;;12.16;43.37
51053;BME280;37093;37.716;-122.060;2023-01-28T10:24:59;100026.69;;;12.15;43.52
51053;BME280;37093;37.716;-122.060;2023-01-28T10:27:31;100030.52;;;12.16;43.01
51053;BME280;37093;37.716;-122.060;2023-01-28T10:30:07;100028.89;;;12.46;42.87
51053;BME280;37093;37.716;-122.060;2023-01-28T10:32:47;100029.01;;;12.43;42.98
51053;BME280;37093;37.716;-122.060;2023-01-28T10:35:18;100030.61;;;12.68;42.77
51053;BME280;37093;37.716;-122.060;2023-01-28T10:37:47;100025.59;;;12.20;42.98
51053;BME280;37093;37.716;-122.060;2023-01-28T10:40:17;100024.23;;;12.70;43.46
51053;BME280;37093;37.716;-122.060;2023-01-28T10:42:46;100026.04;;;12.57;43.46
51053;BME280;37093;37.716;-122.060;2023-01-28T10:45:19;100025.21;;;12.01;43.30
51053;BME280;37093;37.716;-122.060;2023-01-28T10:47:52;100025.58;;;11.98;43.17
51053;BME280;37093;37.716;-122.060;2023-01-28T10:50:24;100024.92;;;12.04;43.06
51053;BME280;37093;37.716;-122.060;2023-01-28T10:52:55;100027.56;;;12.36;42.49
51053;BME280;37093;37.716;-122.060;2023-01-28T10:55:25;100029.22;;;12.07;42.43
51053;BME280;37093;37.716;-122.060;2023-01-28T10:57:55;100026.26;;;12.55;42.30
51053;BME280;37093;37.716;-122.060;2023-01-28T11:00:26;100027.60;;;12.29;42.43
51053;BME280;37093;37.716;-122.060;2023-01-28T11:02:56;100029.07;;;12.31;42.24
51053;BME280;37093;37.716;-122.060;2023-01-28T11:05:26;100026.65;;;12.02;42.34
51053;BME280;37093;37.716;-122.060;2023-01-28T11:08:11;100026.28;;;12.26;42.82
51053;BME280;37093;37.716;-122.060;2023-01-28T11:10:40;100022.90;;;12.19;43.21
51053;BME280;37093;37.716;-122.060;2023-01-28T11:13:16;100023.79;;;12.38;43.05
51053;BME280;37093;37.716;-122.060;2023-01-28T11:15:47;100023.64;;;12.35;42.92
51053;BME280;37093;37.716;-122.060;2023-01-28T11:18:20;100024.52;;;12.33;42.68
51053;BME280;37093;37.716;-122.060;2023-01-28T11:20:53;100028.35;;;12.36;42.61
51053;BME280;37093;37.716;-122.060;2023-01-28T11:23:25;100029.98;;;12.60;42.38
51053;BME280;37093;37.716;-122.060;2023-01-28T11:26:04;100034.59;;;12.38;42.36
51053;BME280;37093;37.716;-122.060;2023-01-28T11:28:33;100033.16;;;12.19;42.29
51053;BME280;37093;37.716;-122.060;2023-01-28T11:31:03;100035.12;;;12.42;42.22
51053;BME280;37093;37.716;-122.060;2023-01-28T11:33:35;100035.32;;;12.13;42.09
51053;BME280;37093;37.716;-122.060;2023-01-28T11:36:10;100032.31;;;12.29;42.08
51053;BME280;37093;37.716;-122.060;2023-01-28T11:38:48;100030.85;;;12.24;42.30
51053;BME280;37093;37.716;-122.060;2023-01-28T11:41:27;100033.15;;;12.18;42.44
51053;BME280;37093;37.716;-122.060;2023-01-28T11:43:58;100034.88;;;12.19;42.24
51053;BME280;37093;37.716;-122.060;2023-01-28T11:46:42;100034.47;;;12.17;42.16
51053;BME280;37093;37.716;-122.060;2023-01-28T11:49:22;100037.44;;;12.36;42.23
51053;BME280;37093;37.716;-122.060;2023-01-28T11:52:00;100035.21;;;11.83;42.41
51053;BME280;37093;37.716;-122.060;2023-01-28T11:54:40;100031.25;;;12.07;42.33
51053;BME280;37093;37.716;-122.060;2023-01-28T11:57:21;100032.52;;;12.05;42.58
51053;BME280;37093;37.716;-122.060;2023-01-28T12:00:02;100032.22;;;11.90;43.09
51053;BME280;37093;37.716;-122.060;2023-01-28T12:02:47;100031.25;;;12.22;43.40
51053;BME280;37093;37.716;-122.060;2023-01-28T12:05:39;100036.10;;;12.03;43.56
51053;BME280;37093;37.716;-122.060;2023-01-28T12:08:17;100043.57;;;11.99;43.88
51053;BME280;37093;37.716;-122.060;2023-01-28T12:10:57;100036.37;;;12.14;44.14
51053;BME280;37093;37.716;-122.060;2023-01-28T12:13:40;100032.37;;;12.16;44.48
51053;BME280;37093;37.716;-122.060;2023-01-28T12:16:29;100032.72;;;12.14;44.81
51053;BME280;37093;37.716;-122.060;2023-01-28T12:19:14;100038.81;;;12.19;45.07
51053;BME280;37093;37.716;-122.060;2023-01-28T12:21:58;100039.97;;;12.01;45.72
51053;BME280;37093;37.716;-122.060;2023-01-28T12:24:43;100042.92;;;11.90;46.28
51053;BME280;37093;37.716;-122.060;2023-01-28T12:27:25;100043.57;;;11.96;46.38
51053;BME280;37093;37.716;-122.060;2023-01-28T12:30:05;100038.63;;;11.99;46.69
51053;BME280;37093;37.716;-122.060;2023-01-28T12:32:49;100037.83;;;11.98;46.57
51053;BME280;37093;37.716;-122.060;2023-01-28T12:35:28;100038.91;;;11.89;47.70
51053;BME280;37093;37.716;-122.060;2023-01-28T12:38:04;100040.01;;;11.97;47.63
51053;BME280;37093;37.716;-122.060;2023-01-28T12:40:47;100043.03;;;11.75;47.60